Terminal Aerodrome Forecast
Issued by NWS

Home | Current Version | Previous Version | Text Only | Print | Product List | Glossary On
Versions: 1 2 3 4 5 6 7 8 9 10 11 12 13 14 15 16 17 18 19 20
000
FTUS43 KBIS 312300
TAFDIK
TAF
KDIK 312320Z 0100/0124 05015G23KT 1/2SM SN OVC015
     FM010400 03009KT 2SM -SN OVC009
     FM010800 02008KT P6SM BKN060
     FM011600 31005KT P6SM BKN080
     FM011800 25005KT P6SM SCT250
     FM012300 18006KT P6SM FEW250=

USA.gov is the U.S. government's official web portal to all federal, state and local government web resources and services.